createdAt,value
2016-08-19T00:00:58.737Z,985.59
2016-08-19T00:01:58.739Z,985.57
2016-08-19T00:02:58.741Z,985.57
2016-08-19T00:03:58.744Z,985.57
2016-08-19T00:04:58.746Z,985.5
2016-08-19T00:05:58.747Z,985.55
2016-08-19T00:06:58.749Z,985.52
2016-08-19T00:07:58.751Z,985.55
2016-08-19T00:08:58.753Z,985.55
2016-08-19T00:09:58.758Z,985.56
2016-08-19T00:10:58.760Z,985.55
2016-08-19T00:11:58.762Z,985.52
2016-08-19T00:12:58.762Z,985.51
2016-08-19T00:13:58.765Z,985.49
2016-08-19T00:14:58.768Z,985.47
2016-08-19T00:15:58.770Z,985.5
2016-08-19T00:16:58.781Z,985.46
2016-08-19T00:17:58.784Z,985.44
2016-08-19T00:18:58.784Z,985.45
2016-08-19T00:19:58.783Z,985.49
2016-08-19T00:20:58.785Z,985.41
2016-08-19T00:21:58.782Z,985.39
2016-08-19T00:22:58.788Z,985.38
2016-08-19T00:23:58.788Z,985.4
2016-08-19T00:24:58.789Z,985.42
2016-08-19T00:25:58.792Z,985.41
2016-08-19T00:26:58.801Z,985.43
2016-08-19T00:27:58.801Z,985.44
2016-08-19T00:28:58.804Z,985.47
2016-08-19T00:29:58.802Z,985.46
2016-08-19T00:30:58.805Z,985.47
2016-08-19T00:31:58.804Z,985.48
2016-08-19T00:32:58.807Z,985.45
2016-08-19T00:33:58.810Z,985.48
2016-08-19T00:34:58.812Z,985.48
2016-08-19T00:35:58.818Z,985.49
2016-08-19T00:36:58.817Z,985.49
2016-08-19T00:37:58.819Z,985.51
2016-08-19T00:38:58.821Z,985.5
2016-08-19T00:39:58.825Z,985.48
2016-08-19T00:40:58.831Z,985.49
2016-08-19T00:41:58.834Z,985.43
2016-08-19T00:42:58.834Z,985.47
2016-08-19T00:43:58.833Z,985.45
2016-08-19T00:44:58.835Z,985.42
2016-08-19T00:45:58.836Z,985.44
2016-08-19T00:46:58.838Z,985.45
2016-08-19T00:47:58.841Z,985.45
2016-08-19T00:48:58.844Z,985.46
2016-08-19T00:49:58.847Z,985.46
2016-08-19T00:50:58.849Z,985.46
2016-08-19T00:51:58.852Z,985.46
2016-08-19T00:52:58.853Z,985.48
2016-08-19T00:53:58.858Z,985.49
2016-08-19T00:54:58.858Z,985.46
2016-08-19T00:55:58.860Z,985.49
2016-08-19T00:56:58.862Z,985.47
2016-08-19T00:57:59.164Z,985.48
2016-08-19T00:58:58.866Z,985.48
2016-08-19T00:59:58.868Z,985.5
2016-08-19T01:00:58.869Z,985.48
2016-08-19T01:01:58.874Z,985.48
2016-08-19T01:02:58.875Z,985.48
2016-08-19T01:03:58.876Z,985.49
2016-08-19T01:04:58.881Z,985.46
2016-08-19T01:05:58.881Z,985.47
2016-08-19T01:06:58.884Z,985.48
2016-08-19T01:07:58.885Z,985.46
2016-08-19T01:08:58.887Z,985.42
2016-08-19T01:09:58.890Z,985.43
2016-08-19T01:10:58.890Z,985.45
2016-08-19T01:11:58.894Z,985.43
2016-08-19T01:12:58.904Z,985.42
2016-08-19T01:13:58.902Z,985.42
2016-08-19T01:14:58.907Z,985.39
2016-08-19T01:15:58.906Z,985.39
2016-08-19T01:16:58.910Z,985.37
2016-08-19T01:17:58.914Z,985.38
2016-08-19T01:18:58.912Z,985.4
2016-08-19T01:19:58.916Z,985.41
2016-08-19T01:20:58.914Z,985.37
2016-08-19T01:21:58.915Z,985.38
2016-08-19T01:22:58.917Z,985.38
2016-08-19T01:23:58.919Z,985.35
2016-08-19T01:24:58.922Z,985.36
2016-08-19T01:25:58.923Z,985.35
2016-08-19T01:26:58.927Z,985.37
2016-08-19T01:27:58.929Z,985.34
2016-08-19T01:28:58.931Z,985.33
2016-08-19T01:29:58.932Z,985.36
2016-08-19T01:30:58.935Z,985.36
2016-08-19T01:31:58.940Z,985.37
2016-08-19T01:32:58.939Z,985.34
2016-08-19T01:33:58.942Z,985.35
2016-08-19T01:34:58.945Z,985.36
2016-08-19T01:35:58.947Z,985.33
2016-08-19T01:36:58.948Z,985.34
2016-08-19T01:37:58.950Z,985.33
2016-08-19T01:38:58.953Z,985.34
2016-08-19T01:39:58.955Z,985.35
2016-08-19T01:40:58.957Z,985.34
2016-08-19T01:41:58.959Z,985.36
2016-08-19T01:42:58.961Z,985.34
2016-08-19T01:43:58.963Z,985.31
2016-08-19T01:44:58.966Z,985.31
2016-08-19T01:45:58.969Z,985.32
2016-08-19T01:46:58.971Z,985.3
2016-08-19T01:47:58.971Z,985.29
2016-08-19T01:48:58.974Z,985.27
2016-08-19T01:49:58.976Z,985.24
2016-08-19T01:50:58.979Z,985.27
2016-08-19T01:51:58.980Z,985.29
2016-08-19T01:52:58.983Z,985.25
2016-08-19T01:53:58.986Z,985.26
2016-08-19T01:54:58.990Z,985.24
2016-08-19T01:55:58.988Z,985.31
2016-08-19T01:56:58.993Z,985.28
2016-08-19T01:57:58.995Z,985.27
2016-08-19T01:58:58.995Z,985.27
2016-08-19T01:59:58.998Z,985.26
2016-08-19T02:00:59.004Z,985.28
2016-08-19T02:01:59.009Z,985.3
2016-08-19T02:02:59.012Z,985.3
2016-08-19T02:03:59.011Z,985.32
2016-08-19T02:04:59.015Z,985.27
2016-08-19T02:05:59.013Z,985.31
2016-08-19T02:06:59.016Z,985.31
2016-08-19T02:07:59.016Z,985.29
2016-08-19T02:08:59.020Z,985.31
2016-08-19T02:09:59.029Z,985.29
2016-08-19T02:10:59.023Z,985.28
2016-08-19T02:11:59.025Z,985.26
2016-08-19T02:12:59.026Z,985.3
2016-08-19T02:13:59.029Z,985.21
2016-08-19T02:14:59.030Z,985.26
2016-08-19T02:15:59.033Z,985.24
2016-08-19T02:16:59.034Z,985.24
2016-08-19T02:17:59.036Z,985.3
2016-08-19T02:18:59.038Z,985.3
2016-08-19T02:19:59.040Z,985.3
2016-08-19T02:20:59.043Z,985.31
2016-08-19T02:21:59.043Z,985.28
2016-08-19T02:22:59.045Z,985.3
2016-08-19T02:23:59.048Z,985.32
2016-08-19T02:24:59.051Z,985.33
2016-08-19T02:25:59.053Z,985.34
2016-08-19T02:26:59.054Z,985.34
2016-08-19T02:27:59.057Z,985.34
2016-08-19T02:28:59.058Z,985.38
2016-08-19T02:29:59.060Z,985.38
2016-08-19T02:30:59.061Z,985.37
2016-08-19T02:31:59.068Z,985.36
2016-08-19T02:32:59.065Z,985.36
2016-08-19T02:33:59.068Z,985.37
2016-08-19T02:34:59.076Z,985.39
2016-08-19T02:35:59.075Z,985.36
2016-08-19T02:36:59.078Z,985.34
2016-08-19T02:37:59.077Z,985.35
2016-08-19T02:38:59.081Z,985.33
2016-08-19T02:39:59.079Z,985.34
2016-08-19T02:40:59.093Z,985.35
2016-08-19T02:41:59.097Z,985.33
2016-08-19T02:42:59.093Z,985.32
2016-08-19T02:43:59.095Z,985.36
2016-08-19T02:44:59.098Z,985.42
2016-08-19T02:45:59.097Z,985.36
2016-08-19T02:46:59.100Z,985.4
2016-08-19T02:47:59.099Z,985.39
2016-08-19T02:48:59.097Z,985.37
2016-08-19T02:49:59.104Z,985.39
2016-08-19T02:50:59.101Z,985.41
2016-08-19T02:51:59.101Z,985.39
2016-08-19T02:52:59.105Z,985.38
2016-08-19T02:53:59.116Z,985.4
2016-08-19T02:54:59.108Z,985.44
2016-08-19T02:55:59.118Z,985.48
2016-08-19T02:56:59.111Z,985.47
2016-08-19T02:57:59.113Z,985.48
2016-08-19T02:58:59.124Z,985.49
2016-08-19T02:59:59.116Z,985.49
2016-08-19T03:00:59.121Z,985.48
2016-08-19T03:01:59.121Z,985.45
2016-08-19T03:02:59.123Z,985.46
2016-08-19T03:03:59.128Z,985.5
2016-08-19T03:04:59.126Z,985.51
2016-08-19T03:05:59.130Z,985.53
2016-08-19T03:06:59.138Z,985.53
2016-08-19T03:07:59.130Z,985.55
2016-08-19T03:08:59.139Z,985.5
2016-08-19T03:09:59.135Z,985.53
2016-08-19T03:10:59.135Z,985.55
2016-08-19T03:11:59.136Z,985.58
2016-08-19T03:12:59.137Z,985.58
2016-08-19T03:13:59.140Z,985.58
2016-08-19T03:14:59.142Z,985.56
2016-08-19T03:15:59.142Z,985.61
2016-08-19T03:16:59.145Z,985.57
2016-08-19T03:17:59.150Z,985.58
2016-08-19T03:18:59.147Z,985.61
2016-08-19T03:19:59.149Z,985.6
2016-08-19T03:20:59.157Z,985.64
2016-08-19T03:21:59.160Z,985.59
2016-08-19T03:22:59.162Z,985.62
2016-08-19T03:23:59.158Z,985.63
2016-08-19T03:24:59.162Z,985.63
2016-08-19T03:25:59.160Z,985.6
2016-08-19T03:26:59.164Z,985.58
2016-08-19T03:27:59.178Z,985.6
2016-08-19T03:28:59.174Z,985.6
2016-08-19T03:29:59.179Z,985.59
2016-08-19T03:30:59.179Z,985.62
2016-08-19T03:31:59.177Z,985.61
2016-08-19T03:32:59.181Z,985.58
2016-08-19T03:33:59.179Z,985.57
2016-08-19T03:34:59.183Z,985.57
2016-08-19T03:35:59.181Z,985.56
2016-08-19T03:36:59.183Z,985.6
2016-08-19T03:37:59.184Z,985.61
2016-08-19T03:38:59.182Z,985.67
2016-08-19T03:39:59.183Z,985.68
2016-08-19T03:40:59.186Z,985.64
2016-08-19T03:41:59.186Z,985.67
2016-08-19T03:42:59.187Z,985.72
2016-08-19T03:43:59.191Z,985.74
2016-08-19T03:44:59.193Z,985.75
2016-08-19T03:45:59.193Z,985.74
2016-08-19T03:46:59.194Z,985.75
2016-08-19T03:47:59.196Z,985.77
2016-08-19T03:48:59.197Z,985.73
2016-08-19T03:49:59.200Z,985.75
2016-08-19T03:50:59.200Z,985.76
2016-08-19T03:51:59.202Z,985.84
2016-08-19T03:52:59.204Z,985.86
2016-08-19T03:53:59.207Z,985.85
2016-08-19T03:54:59.206Z,985.88
2016-08-19T03:55:59.208Z,985.91
2016-08-19T03:56:59.210Z,985.9
2016-08-19T03:57:59.211Z,985.91
2016-08-19T03:58:59.213Z,985.94
2016-08-19T03:59:59.216Z,985.91
2016-08-19T04:00:59.217Z,985.92
2016-08-19T04:01:59.219Z,985.92
2016-08-19T04:02:59.219Z,985.92
2016-08-19T04:03:59.230Z,985.91
2016-08-19T04:04:59.224Z,985.93
2016-08-19T04:05:59.232Z,985.96
2016-08-19T04:06:59.227Z,985.96
2016-08-19T04:07:59.234Z,985.96
2016-08-19T04:08:59.235Z,985.96
2016-08-19T04:09:59.235Z,985.97
2016-08-19T04:10:59.238Z,985.98
2016-08-19T04:11:59.234Z,985.95
2016-08-19T04:12:59.238Z,986.01
2016-08-19T04:13:59.236Z,985.98
2016-08-19T04:14:59.241Z,985.99
2016-08-19T04:15:59.240Z,986.03
2016-08-19T04:16:59.242Z,986.03
2016-08-19T04:17:59.243Z,986.02
2016-08-19T04:18:59.244Z,986.05
2016-08-19T04:19:59.246Z,986.03
2016-08-19T04:20:59.245Z,986.05
2016-08-19T04:21:59.252Z,986.03
2016-08-19T04:22:59.250Z,986.01
2016-08-19T04:23:59.251Z,986.03
2016-08-19T04:24:59.256Z,986.02
2016-08-19T04:25:59.253Z,986
2016-08-19T04:26:59.255Z,986.02
2016-08-19T04:27:59.258Z,986.01
2016-08-19T04:28:59.257Z,986.03
2016-08-19T04:29:59.259Z,985.99
2016-08-19T04:30:59.266Z,986.02
2016-08-19T04:31:59.260Z,986.05
2016-08-19T04:32:59.262Z,986.01
2016-08-19T04:33:59.264Z,986.07
2016-08-19T04:34:59.265Z,986.04
2016-08-19T04:35:59.275Z,986.04
2016-08-19T04:36:59.268Z,986.06
2016-08-19T04:37:59.269Z,986.07
2016-08-19T04:38:59.273Z,986.1
2016-08-19T04:39:59.272Z,986.12
2016-08-19T04:40:59.273Z,986.11
2016-08-19T04:41:59.274Z,986.07
2016-08-19T04:42:59.283Z,986.08
2016-08-19T04:43:59.277Z,986.13
2016-08-19T04:44:59.278Z,986.11
2016-08-19T04:45:59.280Z,986.11
2016-08-19T04:46:59.280Z,986.12
2016-08-19T04:47:59.282Z,986.11
2016-08-19T04:48:59.283Z,986.14
2016-08-19T04:49:59.285Z,986.13
2016-08-19T04:50:59.287Z,986.1
2016-08-19T04:51:59.288Z,986.1
2016-08-19T04:52:59.290Z,986.16
2016-08-19T04:53:59.290Z,986.14
2016-08-19T04:54:59.291Z,986.18
2016-08-19T04:55:59.293Z,986.16
2016-08-19T04:56:59.298Z,986.12
2016-08-19T04:57:59.296Z,986.12
2016-08-19T04:58:59.300Z,986.17
2016-08-19T04:59:59.300Z,986.24
2016-08-19T05:00:59.303Z,986.25
2016-08-19T05:01:59.303Z,986.32
2016-08-19T05:02:59.303Z,986.31
2016-08-19T05:03:59.306Z,986.32
2016-08-19T05:04:59.307Z,986.34
2016-08-19T05:05:59.315Z,986.28
2016-08-19T05:06:59.313Z,986.32
2016-08-19T05:07:59.314Z,986.32
2016-08-19T05:08:59.315Z,986.33
2016-08-19T05:09:59.323Z,986.31
2016-08-19T05:10:59.319Z,986.37
2016-08-19T05:11:59.323Z,986.34
2016-08-19T05:12:59.323Z,986.33
2016-08-19T05:13:59.326Z,986.35
2016-08-19T05:14:59.329Z,986.37
2016-08-19T05:15:59.330Z,986.34
2016-08-19T05:16:59.335Z,986.35
2016-08-19T05:17:59.346Z,986.34
2016-08-19T05:18:59.340Z,986.38
2016-08-19T05:19:59.343Z,986.41
2016-08-19T05:20:59.347Z,986.45
2016-08-19T05:21:59.353Z,986.42
2016-08-19T05:22:59.354Z,986.4
2016-08-19T05:23:59.356Z,986.45
2016-08-19T05:24:59.358Z,986.42
2016-08-19T05:25:59.363Z,986.43
2016-08-19T05:26:59.367Z,986.43
2016-08-19T05:27:59.368Z,986.46
2016-08-19T05:28:59.370Z,986.41
2016-08-19T05:29:59.375Z,986.44
2016-08-19T05:30:59.377Z,986.41
2016-08-19T05:31:59.380Z,986.42
2016-08-19T05:32:59.385Z,986.44
2016-08-19T05:33:59.388Z,986.45
2016-08-19T05:34:59.390Z,986.45
2016-08-19T05:35:59.395Z,986.45
2016-08-19T05:36:59.397Z,986.44
2016-08-19T05:37:59.399Z,986.45
2016-08-19T05:38:59.404Z,986.43
2016-08-19T05:39:59.406Z,986.41
2016-08-19T05:40:59.409Z,986.39
2016-08-19T05:41:59.412Z,986.45
2016-08-19T05:42:59.415Z,986.41
2016-08-19T05:43:59.417Z,986.42
2016-08-19T05:44:59.422Z,986.44
2016-08-19T05:45:59.424Z,986.39
2016-08-19T05:46:59.425Z,986.4
2016-08-19T05:47:59.427Z,986.42
2016-08-19T05:48:59.429Z,986.51
2016-08-19T05:49:59.440Z,986.55
2016-08-19T05:50:59.435Z,986.54
2016-08-19T05:51:59.438Z,986.52
2016-08-19T05:52:59.439Z,986.59
2016-08-19T05:53:59.444Z,986.62
2016-08-19T05:54:59.447Z,986.62
2016-08-19T05:55:59.449Z,986.61
2016-08-19T05:56:59.453Z,986.66
2016-08-19T05:57:59.456Z,986.65
2016-08-19T05:58:59.459Z,986.67
2016-08-19T05:59:59.463Z,986.63
2016-08-19T06:00:59.465Z,986.6
2016-08-19T06:01:59.471Z,986.59
2016-08-19T06:02:59.483Z,986.55
2016-08-19T06:03:59.482Z,986.58
2016-08-19T06:04:59.488Z,986.57
2016-08-19T06:05:59.487Z,986.43
2016-08-19T06:06:59.491Z,986.47
2016-08-19T06:07:59.501Z,986.41
2016-08-19T06:08:59.502Z,986.39
2016-08-19T06:09:59.505Z,986.4
2016-08-19T06:10:59.517Z,986.46
2016-08-19T06:11:59.513Z,986.47
2016-08-19T06:12:59.516Z,986.44
2016-08-19T06:13:59.521Z,986.48
2016-08-19T06:14:59.525Z,986.48
2016-08-19T06:15:59.529Z,986.54
2016-08-19T06:16:59.534Z,986.49
2016-08-19T06:17:59.538Z,986.49
2016-08-19T06:18:59.564Z,986.54
2016-08-19T06:19:59.551Z,986.54
2016-08-19T06:20:59.554Z,986.56
2016-08-19T06:21:59.552Z,986.52
2016-08-19T06:22:59.562Z,986.54
2016-08-19T06:23:59.558Z,986.48
2016-08-19T06:24:59.563Z,986.51
2016-08-19T06:25:59.566Z,986.51
2016-08-19T06:26:59.571Z,986.54
2016-08-19T06:27:59.580Z,986.45
2016-08-19T06:28:59.583Z,986.49
2016-08-19T06:29:59.584Z,986.55
2016-08-19T06:30:59.590Z,986.5
2016-08-19T06:31:59.594Z,986.52
2016-08-19T06:32:59.599Z,986.53
2016-08-19T06:33:59.604Z,986.54
2016-08-19T06:34:59.612Z,986.54
2016-08-19T06:35:59.618Z,986.54
2016-08-19T06:36:59.621Z,986.56
2016-08-19T06:37:59.627Z,986.57
2016-08-19T06:38:59.637Z,986.55
2016-08-19T06:39:59.637Z,986.56
2016-08-19T06:40:59.645Z,986.52
2016-08-19T06:41:59.660Z,986.55
2016-08-19T06:42:59.656Z,986.58
2016-08-19T06:43:59.662Z,986.5
2016-08-19T06:44:59.681Z,986.53
2016-08-19T06:45:59.681Z,986.53
2016-08-19T06:46:59.683Z,986.5
2016-08-19T06:47:59.688Z,986.55
2016-08-19T06:48:59.695Z,986.53
2016-08-19T06:49:59.702Z,986.53
2016-08-19T06:50:59.708Z,986.56
2016-08-19T06:51:59.716Z,986.55
2016-08-19T06:52:59.723Z,986.57
2016-08-19T06:53:59.737Z,986.59
2016-08-19T06:54:59.737Z,986.59
2016-08-19T06:55:59.746Z,986.63
2016-08-19T06:56:59.751Z,986.59
2016-08-19T06:57:59.758Z,986.57
2016-08-19T06:58:59.764Z,986.57
2016-08-19T06:59:59.779Z,986.57
2016-08-19T07:00:59.779Z,986.58
2016-08-19T07:01:59.786Z,986.55
2016-08-19T07:02:59.801Z,986.6
2016-08-19T07:03:59.800Z,986.61
2016-08-19T07:04:59.806Z,986.59
2016-08-19T07:05:59.812Z,986.59
2016-08-19T07:06:59.822Z,986.64
2016-08-19T07:07:59.826Z,986.63
2016-08-19T07:08:59.834Z,986.67
2016-08-19T07:09:59.840Z,986.66
2016-08-19T07:10:59.847Z,986.68
2016-08-19T07:11:59.857Z,986.68
2016-08-19T07:12:59.861Z,986.68
2016-08-19T07:13:59.867Z,986.7
2016-08-19T07:14:59.875Z,986.72
2016-08-19T07:15:59.884Z,986.73
2016-08-19T07:16:59.888Z,986.69
2016-08-19T07:17:59.895Z,986.7
2016-08-19T07:18:59.903Z,986.69
2016-08-19T07:19:59.910Z,986.69
2016-08-19T07:20:59.925Z,986.68
2016-08-19T07:21:59.926Z,986.7
2016-08-19T07:22:59.930Z,986.7
2016-08-19T07:23:59.938Z,986.71
2016-08-19T07:24:59.943Z,986.67
2016-08-19T07:25:59.951Z,986.69
2016-08-19T07:26:59.957Z,986.69
2016-08-19T07:27:59.962Z,986.7
2016-08-19T07:28:59.969Z,986.79
2016-08-19T07:29:59.976Z,986.75
2016-08-19T07:30:59.990Z,986.73
2016-08-19T07:31:59.988Z,986.72
2016-08-19T07:32:59.995Z,986.68
2016-08-19T07:34:00.002Z,986.71
2016-08-19T07:35:00.009Z,986.72
2016-08-19T07:36:00.013Z,986.74
2016-08-19T07:37:00.023Z,986.71
2016-08-19T07:38:00.026Z,986.69
2016-08-19T07:39:00.031Z,986.74
2016-08-19T07:40:00.039Z,986.71
2016-08-19T07:41:00.044Z,986.7
2016-08-19T07:42:00.051Z,986.71
2016-08-19T07:43:00.056Z,986.68
2016-08-19T07:44:00.060Z,986.61
2016-08-19T07:45:00.067Z,986.7
2016-08-19T07:46:00.072Z,986.67
2016-08-19T07:47:00.078Z,986.67
2016-08-19T07:48:00.083Z,986.66
2016-08-19T07:49:00.088Z,986.66
2016-08-19T07:50:00.094Z,986.64
2016-08-19T07:51:00.100Z,986.64
2016-08-19T07:52:00.106Z,986.63
2016-08-19T07:53:00.111Z,986.6
2016-08-19T07:54:00.116Z,986.64
2016-08-19T07:55:00.133Z,986.58
2016-08-19T07:56:00.132Z,986.69
2016-08-19T07:57:00.138Z,986.64
2016-08-19T07:58:00.146Z,986.63
2016-08-19T07:59:00.151Z,986.63
2016-08-19T08:00:00.158Z,986.64
2016-08-19T08:01:00.166Z,986.64
2016-08-19T08:02:00.170Z,986.63
2016-08-19T08:03:00.186Z,986.64
2016-08-19T08:04:00.184Z,986.59
2016-08-19T08:05:00.199Z,986.59
2016-08-19T08:06:00.212Z,986.63
2016-08-19T08:07:00.216Z,986.6
2016-08-19T08:08:00.213Z,986.63
2016-08-19T08:09:00.222Z,986.59
2016-08-19T08:10:00.227Z,986.64
2016-08-19T08:11:00.237Z,986.61
2016-08-19T08:12:00.247Z,986.6
2016-08-19T08:13:00.251Z,986.59
2016-08-19T08:14:00.260Z,986.58
2016-08-19T08:15:00.266Z,986.59
2016-08-19T08:16:00.278Z,986.6
2016-08-19T08:17:00.282Z,986.65
2016-08-19T08:18:00.289Z,986.59
2016-08-19T08:19:00.296Z,986.61
2016-08-19T08:20:00.306Z,986.6
2016-08-19T08:21:00.311Z,986.56
2016-08-19T08:22:00.321Z,986.58
2016-08-19T08:23:00.328Z,986.6
2016-08-19T08:24:00.335Z,986.57
2016-08-19T08:25:00.345Z,986.55
2016-08-19T08:26:00.351Z,986.57
2016-08-19T08:27:00.359Z,986.54
2016-08-19T08:28:00.368Z,986.52
2016-08-19T08:29:00.376Z,986.51
2016-08-19T08:30:00.384Z,986.51
2016-08-19T08:31:00.393Z,986.53
2016-08-19T08:32:00.405Z,986.5
2016-08-19T08:33:00.409Z,986.53
2016-08-19T08:34:00.416Z,986.51
2016-08-19T08:35:00.426Z,986.5
2016-08-19T08:36:00.435Z,986.52
2016-08-19T08:37:00.441Z,986.49
2016-08-19T08:38:00.451Z,986.51
2016-08-19T08:39:00.459Z,986.49
2016-08-19T08:40:00.466Z,986.49
2016-08-19T08:41:00.476Z,986.47
2016-08-19T08:42:00.483Z,986.45
2016-08-19T08:43:00.493Z,986.49
2016-08-19T08:44:00.502Z,986.47
2016-08-19T08:45:00.507Z,986.55
2016-08-19T08:46:00.516Z,986.54
2016-08-19T08:47:00.525Z,986.54
2016-08-19T08:48:00.532Z,986.51
2016-08-19T08:49:00.540Z,986.5
2016-08-19T08:50:00.548Z,986.49
2016-08-19T08:51:00.557Z,986.54
2016-08-19T08:52:00.565Z,986.52
2016-08-19T08:53:00.570Z,986.49
2016-08-19T08:54:00.579Z,986.46
2016-08-19T08:55:00.586Z,986.53
2016-08-19T08:56:00.593Z,986.51
2016-08-19T08:57:00.599Z,986.45
2016-08-19T08:58:00.606Z,986.42
2016-08-19T08:59:00.612Z,986.5
2016-08-19T09:00:00.619Z,986.52
2016-08-19T09:01:00.629Z,986.49
2016-08-19T09:02:00.633Z,986.51
2016-08-19T09:03:00.638Z,986.51
2016-08-19T09:04:00.645Z,986.5
2016-08-19T09:05:00.657Z,986.49
2016-08-19T09:06:00.660Z,986.55
2016-08-19T09:07:00.663Z,986.54
2016-08-19T09:08:00.668Z,986.51
2016-08-19T09:09:00.675Z,986.5
2016-08-19T09:10:00.681Z,986.53
2016-08-19T09:11:00.688Z,986.53
2016-08-19T09:12:00.692Z,986.5
2016-08-19T09:13:00.701Z,986.43
2016-08-19T09:14:00.703Z,986.44
2016-08-19T09:15:00.710Z,986.44
2016-08-19T09:16:00.720Z,986.46
2016-08-19T09:17:00.723Z,986.55
2016-08-19T09:18:00.732Z,986.55
2016-08-19T09:19:00.730Z,986.48
2016-08-19T09:20:00.736Z,986.47
2016-08-19T09:21:00.741Z,986.42
2016-08-19T09:22:00.747Z,986.45
2016-08-19T09:23:00.752Z,986.36
2016-08-19T09:24:00.757Z,986.34
2016-08-19T09:25:00.767Z,986.35
2016-08-19T09:26:00.767Z,986.38
2016-08-19T09:27:00.772Z,986.35
2016-08-19T09:28:00.780Z,986.43
2016-08-19T09:29:00.785Z,986.43
2016-08-19T09:30:00.788Z,986.44
2016-08-19T09:31:00.794Z,986.43
2016-08-19T09:32:00.802Z,986.49
2016-08-19T09:33:00.810Z,986.46
2016-08-19T09:34:00.810Z,986.42
2016-08-19T09:35:00.815Z,986.36
2016-08-19T09:36:00.819Z,986.35
2016-08-19T09:37:00.828Z,986.35
2016-08-19T09:38:00.831Z,986.31
2016-08-19T09:39:00.835Z,986.32
2016-08-19T09:40:00.843Z,986.33
2016-08-19T09:41:00.844Z,986.35
2016-08-19T09:42:00.850Z,986.33
2016-08-19T09:43:00.853Z,986.35
2016-08-19T09:44:00.859Z,986.32
2016-08-19T09:45:00.873Z,986.34
2016-08-19T09:46:00.878Z,986.31
2016-08-19T09:47:00.875Z,986.27
2016-08-19T09:48:00.879Z,986.28
2016-08-19T09:49:00.890Z,986.23
2016-08-19T09:50:00.894Z,986.23
2016-08-19T09:51:00.896Z,986.23
2016-08-19T09:52:00.900Z,986.23
2016-08-19T09:53:00.908Z,986.21
2016-08-19T09:54:00.909Z,986.19
2016-08-19T09:55:00.915Z,986.24
2016-08-19T09:56:00.921Z,986.26
2016-08-19T09:57:00.926Z,986.3
2016-08-19T09:58:00.932Z,986.27
2016-08-19T09:59:00.935Z,986.26
2016-08-19T10:00:00.940Z,986.24
2016-08-19T10:01:00.946Z,986.25
2016-08-19T10:02:00.957Z,986.23
2016-08-19T10:03:00.956Z,986.23
2016-08-19T10:04:00.962Z,986.23
2016-08-19T10:05:00.966Z,986.24
2016-08-19T10:06:00.971Z,986.26
2016-08-19T10:07:00.976Z,986.28
2016-08-19T10:08:00.981Z,986.3
2016-08-19T10:09:00.987Z,986.33
2016-08-19T10:10:00.992Z,986.33
2016-08-19T10:11:00.999Z,986.31
2016-08-19T10:12:01.001Z,986.23
2016-08-19T10:13:01.007Z,986.26
2016-08-19T10:14:01.017Z,986.25
2016-08-19T10:15:01.023Z,986.29
2016-08-19T10:16:01.022Z,986.31
2016-08-19T10:17:01.028Z,986.3
2016-08-19T10:18:01.033Z,986.34
2016-08-19T10:19:01.039Z,986.38
2016-08-19T10:20:01.043Z,986.42
2016-08-19T10:21:01.049Z,986.36
2016-08-19T10:22:01.055Z,986.38
2016-08-19T10:23:01.059Z,986.41
2016-08-19T10:24:01.065Z,986.41
2016-08-19T10:25:01.079Z,986.42
2016-08-19T10:26:01.083Z,986.4
2016-08-19T10:27:01.084Z,986.41
2016-08-19T10:28:01.087Z,986.4
2016-08-19T10:29:01.098Z,986.37
2016-08-19T10:30:01.095Z,986.37
2016-08-19T10:31:01.113Z,986.35
2016-08-19T10:32:01.114Z,986.28
2016-08-19T10:33:01.113Z,986.33
2016-08-19T10:34:01.117Z,986.31
2016-08-19T10:35:01.121Z,986.28
2016-08-19T10:36:01.127Z,986.29
2016-08-19T10:37:01.148Z,986.31
2016-08-19T10:38:01.141Z,986.25
2016-08-19T10:39:01.144Z,986.26
2016-08-19T10:40:01.149Z,986.19
2016-08-19T10:41:01.155Z,986.18
2016-08-19T10:42:01.159Z,986.18
2016-08-19T10:43:01.176Z,986.15
2016-08-19T10:44:01.174Z,986.17
2016-08-19T10:45:01.178Z,986.14
2016-08-19T10:46:01.186Z,986.09
2016-08-19T10:47:01.187Z,986.11
2016-08-19T10:48:01.191Z,986.13
2016-08-19T10:49:01.196Z,986.13
2016-08-19T10:50:01.202Z,986.14
2016-08-19T10:51:01.208Z,986.12
2016-08-19T10:52:01.213Z,986.16
2016-08-19T10:53:01.218Z,986.23
2016-08-19T10:54:01.224Z,986.21
2016-08-19T10:55:01.230Z,986.17
2016-08-19T10:56:01.233Z,986.13
2016-08-19T10:57:01.240Z,986.16
2016-08-19T10:58:01.246Z,986.14
2016-08-19T10:59:01.256Z,986.14
2016-08-19T11:00:01.257Z,986.15
2016-08-19T11:01:01.262Z,986.14
2016-08-19T11:02:01.268Z,986.1
2016-08-19T11:03:01.274Z,986.12
2016-08-19T11:04:01.279Z,986.04
2016-08-19T11:05:01.285Z,986.04
2016-08-19T11:06:01.297Z,986.05
2016-08-19T11:07:01.297Z,986.04
2016-08-19T11:08:01.307Z,986.03
2016-08-19T11:09:01.314Z,986.08
2016-08-19T11:10:01.314Z,986.06
2016-08-19T11:11:01.320Z,986.07
2016-08-19T11:12:01.325Z,986.09
2016-08-19T11:13:01.331Z,986.07
2016-08-19T11:14:01.336Z,986.08
2016-08-19T11:15:01.342Z,986.07
2016-08-19T11:16:01.357Z,986.1
2016-08-19T11:17:01.361Z,986.14
2016-08-19T11:18:01.359Z,986.16
2016-08-19T11:19:01.386Z,986.19
2016-08-19T11:20:01.374Z,986.2
2016-08-19T11:21:01.377Z,986.27
2016-08-19T11:22:01.384Z,986.24
2016-08-19T11:23:01.390Z,986.24
2016-08-19T11:24:01.396Z,986.22
2016-08-19T11:25:01.401Z,986.25
2016-08-19T11:26:01.408Z,986.19
2016-08-19T11:27:01.415Z,986.18
2016-08-19T11:28:01.421Z,986.2
2016-08-19T11:29:01.426Z,986.17
2016-08-19T11:30:01.433Z,986.16
2016-08-19T11:31:01.438Z,986.17
2016-08-19T11:32:01.445Z,986.14
2016-08-19T11:33:01.450Z,986.12
2016-08-19T11:34:01.457Z,986.15
2016-08-19T11:35:01.465Z,986.1
2016-08-19T11:36:01.470Z,986.09
2016-08-19T11:37:01.481Z,986.04
2016-08-19T11:38:01.484Z,986.1
2016-08-19T11:39:01.489Z,986.08
2016-08-19T11:40:01.494Z,986.1
2016-08-19T11:41:01.501Z,986.03
2016-08-19T11:42:01.507Z,986.06
2016-08-19T11:43:01.515Z,986.03
2016-08-19T11:44:01.519Z,986.01
2016-08-19T11:45:01.526Z,986.09
2016-08-19T11:46:01.532Z,986.11
2016-08-19T11:47:01.546Z,986.05
2016-08-19T11:48:01.545Z,985.99
2016-08-19T11:49:01.552Z,985.99
2016-08-19T11:50:01.559Z,985.94
2016-08-19T11:51:01.564Z,985.86
2016-08-19T11:52:01.571Z,985.84
2016-08-19T11:53:01.579Z,985.74
2016-08-19T11:54:01.585Z,985.75
2016-08-19T11:55:01.592Z,985.75
2016-08-19T11:56:01.599Z,985.74
2016-08-19T11:57:01.605Z,985.79
2016-08-19T11:58:01.615Z,985.82
2016-08-19T11:59:01.617Z,985.78
2016-08-19T12:00:01.625Z,985.8
2016-08-19T12:01:01.630Z,985.78
2016-08-19T12:02:01.644Z,985.75
2016-08-19T12:03:01.644Z,985.73
2016-08-19T12:04:01.649Z,985.73
2016-08-19T12:05:01.654Z,985.76
2016-08-19T12:06:01.662Z,985.78
2016-08-19T12:07:01.668Z,985.81
2016-08-19T12:08:01.674Z,985.75
2016-08-19T12:09:01.680Z,985.81
2016-08-19T12:10:01.685Z,985.8
2016-08-19T12:11:01.692Z,985.82
2016-08-19T12:12:01.698Z,985.86
2016-08-19T12:13:01.703Z,985.86
2016-08-19T12:14:01.709Z,985.84
2016-08-19T12:15:01.716Z,985.83
2016-08-19T12:16:01.721Z,985.8
2016-08-19T12:17:01.728Z,985.79
2016-08-19T12:18:01.734Z,985.83
2016-08-19T12:19:01.742Z,985.83
2016-08-19T12:20:01.745Z,985.74
2016-08-19T12:21:01.751Z,985.8
2016-08-19T12:22:01.759Z,985.74
2016-08-19T12:23:01.764Z,985.65
2016-08-19T12:24:01.769Z,985.72
2016-08-19T12:25:01.776Z,985.72
2016-08-19T12:26:01.782Z,985.71
2016-08-19T12:27:01.788Z,985.67
2016-08-19T12:28:01.795Z,985.68
2016-08-19T12:29:01.816Z,985.66
2016-08-19T12:30:01.809Z,985.6
2016-08-19T12:31:01.811Z,985.66